createdAt,value
2023-04-13T00:01:59.595Z,14.43
2023-04-13T00:07:05.059Z,14.41
2023-04-13T00:12:07.419Z,14.04
2023-04-13T00:17:10.151Z,13.65
2023-04-13T00:22:12.872Z,13.87
2023-04-13T00:27:15.048Z,13.83
2023-04-13T00:32:17.497Z,13.82
2023-04-13T00:37:20.465Z,13.87
2023-04-13T00:42:22.803Z,14.04
2023-04-13T00:47:29.090Z,13.87
2023-04-13T00:52:31.363Z,13.58
2023-04-13T00:57:34.532Z,13.45
2023-04-13T01:02:37.970Z,13.24
2023-04-13T01:07:51.865Z,13.60
2023-04-13T01:12:57.318Z,13.63
2023-04-13T01:18:07.624Z,13.56
2023-04-13T01:23:12.944Z,13.34
2023-04-13T01:28:19.813Z,12.85
2023-04-13T01:33:22.833Z,12.43
2023-04-13T01:38:25.668Z,12.66
2023-04-13T01:43:28.443Z,12.87
2023-04-13T01:48:37.867Z,12.86
2023-04-13T01:54:02.401Z,13.14
2023-04-13T01:59:05.446Z,12.82
2023-04-13T02:04:08.163Z,12.48
2023-04-13T02:09:11.435Z,12.76
2023-04-13T02:14:13.892Z,12.79
2023-04-13T02:19:16.068Z,12.92
2023-04-13T02:24:18.312Z,12.64
2023-04-13T02:29:20.477Z,12.85
2023-04-13T02:34:23.365Z,13.00
2023-04-13T02:39:25.591Z,13.02
2023-04-13T02:44:27.713Z,12.60
2023-04-13T02:49:29.952Z,12.64
2023-04-13T02:54:32.137Z,12.33
2023-04-13T02:59:34.311Z,12.66
2023-04-13T03:04:36.538Z,12.57
2023-04-13T03:09:39.990Z,12.47
2023-04-13T03:14:42.104Z,12.72
2023-04-13T03:19:48.095Z,12.58
2023-04-13T03:24:51.018Z,12.82
2023-04-13T03:29:53.190Z,12.72
2023-04-13T03:34:56.021Z,12.76
2023-04-13T03:39:59.147Z,12.74
2023-04-13T03:45:01.240Z,12.63
2023-04-13T03:50:04.149Z,12.79
2023-04-13T03:55:07.102Z,12.81
2023-04-13T04:00:14.358Z,12.46
2023-04-13T04:05:17.534Z,12.04
2023-04-13T04:10:20.046Z,11.78
2023-04-13T04:15:22.623Z,12.20
2023-04-13T04:20:25.023Z,11.78
2023-04-13T04:25:27.885Z,11.87
2023-04-13T04:30:30.687Z,11.98
2023-04-13T04:35:35.928Z,11.75
2023-04-13T04:40:38.377Z,11.94
2023-04-13T04:51:09.384Z,11.83
2023-04-13T04:56:11.468Z,11.49
2023-04-13T05:01:13.755Z,11.59
2023-04-13T05:06:16.153Z,11.86
2023-04-13T05:11:18.384Z,12.26
2023-04-13T05:16:20.556Z,12.26
2023-04-13T05:21:23.317Z,12.59
2023-04-13T05:26:25.820Z,12.65
2023-04-13T05:31:29.090Z,12.52
2023-04-13T05:36:32.570Z,12.75
2023-04-13T05:41:34.764Z,13.17
2023-04-13T05:46:37.028Z,13.53
2023-04-13T05:51:39.637Z,13.72
2023-04-13T05:56:41.837Z,13.85
2023-04-13T06:01:43.983Z,14.06
2023-04-13T06:06:46.796Z,14.01
2023-04-13T06:11:48.873Z,14.35
2023-04-13T06:16:52.925Z,14.47
2023-04-13T06:21:55.161Z,14.51
2023-04-13T06:26:58.610Z,14.89
2023-04-13T06:32:00.834Z,15.18
2023-04-13T06:37:06.345Z,15.39
2023-04-13T06:42:08.473Z,15.49
2023-04-13T06:47:10.762Z,15.51
2023-04-13T06:52:13.062Z,15.66
2023-04-13T06:57:15.125Z,15.89
2023-04-13T07:02:17.857Z,15.84
2023-04-13T07:07:20.593Z,15.90
2023-04-13T07:12:22.721Z,16.16
2023-04-13T07:17:25.204Z,16.34
2023-04-13T07:22:32.758Z,16.56
2023-04-13T07:27:34.981Z,16.16
2023-04-13T07:32:37.386Z,16.50
2023-04-13T07:37:39.868Z,17.00
2023-04-13T07:42:42.386Z,17.24
2023-04-13T07:47:44.545Z,17.53
2023-04-13T07:52:46.760Z,17.65
2023-04-13T07:57:49.168Z,17.75
2023-04-13T08:02:51.983Z,17.98
2023-04-13T08:07:54.361Z,18.02
2023-04-13T08:12:56.863Z,18.28
2023-04-13T08:18:00.117Z,18.36
2023-04-13T08:23:02.375Z,18.77
2023-04-13T08:28:05.469Z,18.88
2023-04-13T08:33:08.100Z,18.94
2023-04-13T08:38:10.572Z,18.91
2023-04-13T08:43:13.689Z,19.12
2023-04-13T08:48:19.660Z,19.06
2023-04-13T08:53:22.061Z,19.36
2023-04-13T08:58:26.202Z,19.69
2023-04-13T09:03:34.253Z,20.00
2023-04-13T09:08:37.040Z,20.30
2023-04-13T09:13:39.245Z,20.35
2023-04-13T09:18:54.397Z,20.20
2023-04-13T09:23:59.403Z,20.11
2023-04-13T09:29:03.565Z,20.32
2023-04-13T09:34:06.655Z,20.39
2023-04-13T09:39:08.845Z,20.65
2023-04-13T09:44:18.240Z,20.80
2023-04-13T09:49:20.615Z,20.82
2023-04-13T09:54:23.231Z,21.16
2023-04-13T09:59:30.161Z,21.40
2023-04-13T10:04:35.072Z,21.47
2023-04-13T10:09:37.412Z,21.54
2023-04-13T10:14:43.956Z,21.89
2023-04-13T10:19:51.746Z,22.15
2023-04-13T10:24:53.902Z,22.06
2023-04-13T10:29:56.566Z,22.46
2023-04-13T10:35:16.604Z,22.52
2023-04-13T10:40:18.840Z,22.55
2023-04-13T10:45:26.676Z,22.30
2023-04-13T10:50:29.014Z,22.38
2023-04-13T10:55:35.639Z,22.52
2023-04-13T11:00:46.131Z,22.79
2023-04-13T11:06:00.303Z,23.09
2023-04-13T11:11:02.502Z,23.15
2023-04-13T11:16:06.059Z,23.45
2023-04-13T11:21:18.188Z,23.31
2023-04-13T11:26:32.031Z,23.66
2023-04-13T11:31:42.435Z,23.89
2023-04-13T11:36:49.244Z,24.06
2023-04-13T11:41:52.036Z,24.26
2023-04-13T11:46:54.404Z,24.34
2023-04-13T11:51:57.140Z,24.38
2023-04-13T11:56:59.310Z,24.55
2023-04-13T12:02:05.330Z,24.68
2023-04-13T12:07:14.126Z,24.72
2023-04-13T12:12:50.783Z,24.90
2023-04-13T12:17:48.646Z,24.94
2023-04-13T12:23:00.171Z,25.29
2023-04-13T12:28:05.256Z,25.51
2023-04-13T12:33:07.569Z,25.61
2023-04-13T12:38:09.801Z,25.69
2023-04-13T12:43:11.949Z,25.34
2023-04-13T12:48:14.130Z,25.79
2023-04-13T12:53:16.628Z,26.22
2023-04-13T12:58:18.964Z,26.28
2023-04-13T13:03:21.788Z,26.25
2023-04-13T13:08:24.052Z,26.64
2023-04-13T13:13:26.108Z,26.84
2023-04-13T13:18:38.418Z,27.01
2023-04-13T13:23:49.218Z,27.23
2023-04-13T13:28:52.406Z,27.32
2023-04-13T13:33:57.588Z,27.39
2023-04-13T13:39:00.438Z,27.61
2023-04-13T13:44:02.774Z,27.51
2023-04-13T13:49:05.657Z,27.88
2023-04-13T13:54:07.958Z,27.85
2023-04-13T13:59:10.113Z,28.20
2023-04-13T14:04:13.289Z,28.30
2023-04-13T14:09:15.483Z,28.23
2023-04-13T14:14:21.984Z,28.56
2023-04-13T14:19:25.039Z,28.74
2023-04-13T14:24:27.552Z,28.73
2023-04-13T14:29:29.862Z,29.08
2023-04-13T14:34:32.008Z,29.30
2023-04-13T14:39:34.541Z,28.95
2023-04-13T14:44:37.070Z,29.31
2023-04-13T14:49:39.348Z,30.12
2023-04-13T14:54:42.153Z,30.57
2023-04-13T14:59:45.264Z,30.91
2023-04-13T15:04:48.518Z,31.90
2023-04-13T15:09:50.805Z,33.43
2023-04-13T15:14:53.128Z,34.70
2023-04-13T15:19:55.503Z,35.85
2023-04-13T15:24:57.646Z,36.70
2023-04-13T15:30:00.642Z,37.08
2023-04-13T15:35:03.248Z,37.75
2023-04-13T15:40:08.028Z,37.97
2023-04-13T15:45:10.763Z,37.95
2023-04-13T15:50:13.777Z,37.68
2023-04-13T15:55:15.996Z,37.70
2023-04-13T16:00:18.698Z,37.43
2023-04-13T16:05:21.471Z,37.28
2023-04-13T16:10:23.749Z,36.53
2023-04-13T16:15:26.630Z,36.21
2023-04-13T16:20:29.057Z,35.31
2023-04-13T16:25:31.897Z,34.46
2023-04-13T16:30:34.190Z,32.66
2023-04-13T16:35:37.087Z,30.79
2023-04-13T16:40:39.547Z,30.10
2023-04-13T16:45:42.547Z,29.14
2023-04-13T16:50:44.759Z,27.97
2023-04-13T16:55:51.216Z,26.72
2023-04-13T17:00:54.055Z,26.01
2023-04-13T17:05:56.719Z,25.55
2023-04-13T17:10:59.516Z,25.33
2023-04-13T17:16:02.069Z,24.88
2023-04-13T17:21:04.717Z,24.43
2023-04-13T17:26:07.082Z,24.27
2023-04-13T17:31:09.530Z,23.44
2023-04-13T17:36:11.977Z,23.23
2023-04-13T17:41:14.317Z,22.62
2023-04-13T17:46:16.605Z,22.70
2023-04-13T17:51:18.978Z,22.79
2023-04-13T17:56:21.168Z,22.67
2023-04-13T18:01:26.046Z,22.24
2023-04-13T18:06:28.592Z,22.33
2023-04-13T18:11:31.075Z,22.14
2023-04-13T18:16:33.499Z,21.56
2023-04-13T18:21:37.399Z,21.79
2023-04-13T18:26:40.053Z,21.68
2023-04-13T18:31:42.528Z,21.83
2023-04-13T18:36:45.005Z,21.93
2023-04-13T18:41:47.694Z,21.22
2023-04-13T18:46:49.909Z,21.66
2023-04-13T18:51:52.180Z,21.28
2023-04-13T18:56:54.678Z,20.87
2023-04-13T19:01:57.110Z,20.78
2023-04-13T19:06:59.333Z,20.70
2023-04-13T19:12:03.134Z,21.16
2023-04-13T19:17:06.043Z,20.79
2023-04-13T19:22:08.291Z,20.24
2023-04-13T19:27:10.702Z,20.71
2023-04-13T19:32:13.298Z,20.59
2023-04-13T19:37:16.820Z,20.24
2023-04-13T19:42:19.136Z,19.98
2023-04-13T19:47:21.544Z,19.98
2023-04-13T19:52:23.851Z,19.29
2023-04-13T19:57:26.292Z,19.10
2023-04-13T20:02:28.993Z,19.86
2023-04-13T20:07:31.405Z,19.04
2023-04-13T20:12:34.238Z,19.44
2023-04-13T20:17:36.639Z,19.31
2023-04-13T20:22:39.329Z,19.48
2023-04-13T20:27:42.354Z,19.04
2023-04-13T20:32:44.953Z,18.57
2023-04-13T20:37:47.385Z,19.39
2023-04-13T20:42:49.660Z,19.32
2023-04-13T20:47:57.371Z,19.12
2023-04-13T20:53:00.122Z,18.38
2023-04-13T20:58:02.719Z,18.38
2023-04-13T21:03:05.482Z,18.47
2023-04-13T21:08:08.075Z,18.69
2023-04-13T21:13:11.224Z,18.53
2023-04-13T21:18:13.399Z,18.26
2023-04-13T21:23:16.857Z,17.89
2023-04-13T21:28:19.120Z,18.36
2023-04-13T21:33:21.770Z,17.49
2023-04-13T21:38:24.023Z,17.25
2023-04-13T21:43:26.573Z,17.72
2023-04-13T21:48:28.809Z,17.79
2023-04-13T21:53:31.270Z,17.04
2023-04-13T21:58:41.732Z,17.36
2023-04-13T22:03:47.286Z,16.71
2023-04-13T22:08:49.821Z,17.14
2023-04-13T22:13:52.099Z,17.29
2023-04-13T22:18:54.303Z,17.85
2023-04-13T22:23:56.654Z,16.77
2023-04-13T22:28:59.337Z,16.96
2023-04-13T22:34:02.067Z,17.23
2023-04-13T22:39:04.380Z,17.58
2023-04-13T22:44:06.716Z,17.40
2023-04-13T22:49:10.344Z,16.91
2023-04-13T22:54:12.680Z,17.40
2023-04-13T22:59:16.794Z,16.78
2023-04-13T23:04:19.294Z,16.53
2023-04-13T23:09:21.643Z,17.22
2023-04-13T23:14:24.101Z,17.04
2023-04-13T23:19:26.585Z,17.29
2023-04-13T23:24:29.061Z,17.40
2023-04-13T23:29:31.515Z,16.92
2023-04-13T23:34:33.729Z,16.61
2023-04-13T23:39:35.976Z,16.99
2023-04-13T23:44:38.188Z,16.99
2023-04-13T23:49:40.511Z,16.96
2023-04-13T23:54:42.685Z,16.39
2023-04-13T23:59:45.138Z,16.69
